Latest Weather Observations for Orange Airport

IDN60801

Issued at 10:05 am EST Wednesday 1 October 2014 (issued every 30 minutes, with the page automatically refreshed every 10 minutes)

About weather observations | Map of weather stations | Latest weather observations for NSW | Other Formats
Station Details ID: 063303 Name: ORANGE AIRPORT AWS Lat: -33.38 Lon: 149.13 Height: 947.4 m
Data from the previous 72 hours. | See also: Recent months at Orange Airport
Date/Time
EST
Temp
°C
App
Temp
°C
Dew
Point
Rel
Hum
%
Delta-T
°C
Wind Press
QNH
hPa
Press
MSL
hPa
Rain
since 9 am
mm
Dir
 
Spd
km/h
Gust
km/h
Spd
kts
Gust
kts
01/10:00am 7.0 -1.4 -0.9 57 3.2 SSW 33 46 18 25 1020.2 1018.6 0.0
01/09:30am 6.4 -3.5 -0.6 61 2.8 SSW 41 50 22 27 1020.3 1019.8 0.0
01/09:00am 6.3 -1.6 1.0 69 2.2 SSW 32 44 17 24 1020.2 1019.7 0.0
01/08:30am 5.1 -3.0 1.2 76 1.6 SSW 33 46 18 25 1020.1 1019.6 0.0
01/08:19am 4.7 -3.4 1.0 77 1.5 SSW 33 50 18 27 1020.1 1019.6 0.0
01/08:13am 5.2 -2.6 1.5 77 1.6 SSW 32 50 17 27 1020.0 1019.4 0.0
01/08:00am 5.6 -1.2 2.9 83 1.2 SW 28 39 15 21 1019.6 1019.1 0.0
01/07:30am 5.3 -2.7 3.6 89 0.8 SSW 35 48 19 26 1019.2 1018.7 0.0
01/07:05am 4.3 -3.3 2.8 90 0.6 SW 32 46 17 25 1019.1 1018.5 0.0
01/07:00am 4.4 -2.8 2.8 89 0.7 SW 30 48 16 26 1019.2 1018.7 0.0
01/06:52am 4.4 -2.9 2.6 88 0.8 SW 30 48 16 26 1019.0 1018.4 0.0
01/06:30am 4.1 -2.4 2.9 92 0.5 SW 26 41 14 22 1018.5 1018.0 0.0
01/06:00am 3.8 -3.2 2.2 89 0.7 SW 28 39 15 21 1018.2 1017.7 0.0
01/05:30am 4.2 -3.8 0.7 78 1.4 SW 32 44 17 24 1017.7 1017.1 0.0
01/05:00am 4.4 -1.8 1.9 84 1.1 SW 24 35 13 19 1017.1 1016.5 0.0
01/04:30am 5.1 -2.7 1.8 79 1.4 SW 32 46 17 25 1016.8 1016.2 0.0
01/04:26am 5.1 -1.9 1.8 79 1.4 SW 28 46 15 25 1016.8 1016.2 0.0
01/04:00am 5.5 -1.6 1.4 75 1.7 SW 28 39 15 21 1016.5 1015.9 0.0
01/03:30am 6.0 -1.2 0.6 68 2.2 SW 28 43 15 23 1016.2 1015.6 0.0
01/03:18am 6.4 -1.6 0.5 66 2.5 SW 32 52 17 28 1016.2 1015.6 0.0
01/03:00am 6.8 -1.1 1.3 68 2.3 SW 32 48 17 26 1016.2 1015.6 0.0
01/02:30am 7.5 -0.3 2.0 68 2.4 SW 32 44 17 24 1016.3 1015.7 0.0
01/02:00am 7.7 -0.3 1.8 66 2.6 SW 33 46 18 25 1016.1 1015.5 0.0
01/01:32am 8.1 0.3 3.0 70 2.3 SW 33 52 18 28 1016.3 1015.7 0.0
01/01:30am 8.1 0.0 3.0 70 2.3 SW 35 52 19 28 1016.3 1015.7 0.0
01/01:00am 8.8 -0.2 4.8 76 1.9 SW 41 63 22 34 1016.3 1015.7 0.0
01/12:47am 8.9 0.9 5.6 80 1.6 SW 37 56 20 30 1016.2 1015.6 0.0
01/12:30am 9.4 1.0 5.8 78 1.7 SW 39 56 21 30 1016.2 1015.6 0.0
01/12:14am 10.5 1.1 4.4 66 2.9 SW 43 63 23 34 1016.0 1015.4 0.0
01/12:09am 12.3 2.5 2.2 50 4.6 SW 43 54 23 29 1015.7 1015.1 0.0
01/12:04am 16.0 8.6 -0.7 32 7.4 WSW 28 48 15 26 1015.2 1014.6 0.0
01/12:00am 16.4 9.8 -0.3 32 7.5 W 24 48 13 26 1014.9 1014.3 0.0
 
Date/Time
EST
Temp
°C
App
Temp
°C
Dew
Point
Rel
Hum
%
Delta-T
°C
Wind Press
QNH
hPa
Press
MSL
hPa
Rain
since 9 am
mm
Dir
 
Spd
km/h
Gust
km/h
Spd
kts
Gust
kts
30/11:30pm 16.4 10.5 -0.8 31 7.6 W 20 32 11 17 1014.8 1014.2 0.0
30/11:00pm 16.7 11.3 -1.4 29 8.0 W 17 24 9 13 1014.8 1014.2 0.0
30/10:30pm 17.4 11.0 -1.8 27 8.4 W 22 33 12 18 1014.9 1014.3 0.0
30/10:00pm 17.5 11.7 -1.2 28 8.3 W 19 30 10 16 1014.9 1014.3 0.0
30/09:30pm 17.4 11.9 0.6 32 7.7 W 19 28 10 15 1015.2 1014.6 0.0
30/09:00pm 17.1 12.8 3.1 39 6.8 W 15 22 8 12 1015.5 1014.9 0.0
30/08:30pm 18.2 13.5 2.9 36 7.4 W 17 26 9 14 1015.4 1014.7 0.0
30/08:00pm 17.5 13.7 4.1 41 6.6 W 13 17 7 9 1015.4 1014.7 0.0
30/07:30pm 17.5 14.1 4.1 41 6.6 W 11 13 6 7 1015.1 1014.5 0.0
30/07:00pm 17.3 13.8 5.3 45 6.1 WNW 13 17 7 9 1014.8 1014.2 0.0
30/06:30pm 15.5 11.9 5.1 50 5.2 NNW 13 17 7 9 1014.7 1014.1 0.0
30/06:00pm 17.0 13.1 5.3 46 5.9 NW 15 20 8 11 1014.4 1013.7 0.0
30/05:30pm 19.7 15.1 5.7 40 7.3 NW 19 24 10 13 1014.4 1013.7 0.0
30/05:00pm 20.4 15.9 7.1 42 7.1 NW 20 26 11 14 1014.3 1013.6 0.0
30/04:30pm 21.4 15.6 6.1 37 8.1 NNW 26 32 14 17 1014.5 1013.8 0.0
30/04:00pm 22.5 15.6 6.3 35 8.6 NW 32 41 17 22 1014.6 1014.0 0.0
30/03:30pm 22.5 15.7 5.0 32 9.1 NW 30 39 16 21 1014.7 1014.1 0.0
30/03:00pm 22.8 16.1 5.7 33 9.0 NW 30 41 16 22 1015.0 1014.4 0.0
30/02:30pm 22.6 14.4 6.4 35 8.7 NNW 39 50 21 27 1015.1 1014.5 0.0
30/02:00pm 22.4 13.6 5.4 33 8.9 NNW 41 54 22 29 1015.5 1014.9 0.0
30/01:30pm 23.2 15.5 7.3 36 8.7 NW 37 48 20 26 1015.7 1015.1 0.0
30/01:00pm 22.7 16.4 8.8 41 7.8 NNW 32 41 17 22 1015.9 1015.3 0.0
30/12:30pm 21.1 14.6 6.6 39 7.7 NNW 30 41 16 22 1016.7 1016.1 0.0
30/12:12pm 21.8 13.6 6.5 37 8.2 NW 39 57 21 31 1017.2 1016.6 0.0
30/12:00pm 22.3 13.4 6.9 37 8.3 NW 43 54 23 29 1017.1 1016.5 0.0
30/11:30am 21.4 13.8 9.0 45 6.9 NNW 39 50 21 27 1017.3 1016.8 0.0
30/11:00am 20.4 12.3 8.7 47 6.4 NNW 41 56 22 30 1017.4 1016.9 0.0
30/10:30am 19.5 10.8 7.9 47 6.3 NNW 43 54 23 29 1017.8 1017.2 0.0
30/10:00am 19.7 11.5 8.4 48 6.2 NNW 41 54 22 29 1018.2 1017.7 0.0
30/09:30am 19.3 11.7 7.7 47 6.2 NNW 37 50 20 27 1018.5 1018.0 0.0
30/09:01am 18.4 11.2 7.5 49 5.8 NNW 35 54 19 29 1018.6 1018.1 0.0
30/09:00am 18.6 11.6 8.3 51 5.6 NNW 35 44 19 24 1018.6 1018.1 0.0
30/08:30am 17.6 10.4 7.6 52 5.3 NNW 35 44 19 24 1018.8 1018.2 0.0
30/08:00am 16.7 10.8 7.4 54 4.9 NNW 28 35 15 19 1018.8 1018.2 0.0
30/07:30am 15.9 9.4 6.3 53 4.9 NNW 30 41 16 22 1018.4 1017.9 0.0
30/07:00am 14.7 10.1 6.5 58 4.2 NNW 20 28 11 15 1018.3 1017.8 0.0
30/06:30am 13.1 8.4 6.2 63 3.5 NNW 20 24 11 13 1018.2 1017.7 0.0
30/06:00am 10.8 6.0 5.6 70 2.5 NNW 20 22 11 12 1018.0 1017.4 0.0
30/05:30am 11.2 6.3 5.3 67 2.9 NNW 20 24 11 13 1017.7 1017.1 0.0
30/05:00am 11.3 6.1 5.4 67 2.9 NNW 22 26 12 14 1017.3 1016.8 0.0
30/04:30am 11.3 6.5 5.6 68 2.8 NNW 20 24 11 13 1017.0 1016.4 0.0
30/04:00am 10.2 5.5 5.2 71 2.4 NNW 19 20 10 11 1017.0 1016.4 0.0
30/03:30am 10.0 5.6 5.0 71 2.4 NNW 17 19 9 10 1017.2 1016.6 0.0
30/03:00am 10.4 5.7 5.0 69 2.6 NNW 19 20 10 11 1017.4 1016.9 0.0
30/02:30am 10.2 5.8 4.8 69 2.6 NNW 17 17 9 9 1017.8 1017.2 0.0
30/02:00am 10.6 6.3 5.2 69 2.6 NNW 17 17 9 9 1017.9 1017.3 0.0
30/01:30am 10.3 5.9 4.9 69 2.6 NNW 17 17 9 9 1018.1 1017.5 0.0
30/01:00am 10.1 5.7 4.7 69 2.6 NNW 17 17 9 9 1018.4 1017.9 0.0
30/12:30am 10.8 6.7 4.3 64 3.1 NNW 15 15 8 8 1018.5 1018.0 0.0
30/12:00am 10.1 6.4 4.5 68 2.6 NNW 13 15 7 8 1018.9 1018.3 0.0
 
Date/Time
EST
Temp
°C
App
Temp
°C
Dew
Point
Rel
Hum
%
Delta-T
°C
Wind Press
QNH
hPa
Press
MSL
hPa
Rain
since 9 am
mm
Dir
 
Spd
km/h
Gust
km/h
Spd
kts
Gust
kts
29/11:30pm 11.0 7.0 4.7 65 3.0 NNW 15 17 8 9 1019.0 1018.4 0.0
29/11:00pm 10.5 7.8 3.8 63 3.1 NNW 7 11 4 6 1019.2 1018.7 0.0
29/10:30pm 11.1 7.7 4.1 62 3.3 NNW 11 13 6 7 1019.3 1018.8 0.0
29/10:00pm 13.0 9.4 5.2 59 3.8 NNW 13 13 7 7 1019.5 1019.0 0.0
29/09:30pm 12.0 9.6 5.4 64 3.2 N 7 9 4 5 1019.5 1019.0 0.0
29/09:00pm 13.0 10.7 5.9 62 3.5 N 7 7 4 4 1019.5 1019.0 0.0
29/08:30pm 12.6 9.9 5.5 62 3.5 N 9 11 5 6 1019.5 1019.0 0.0
29/08:00pm 12.6 9.9 5.5 62 3.5 N 9 9 5 5 1019.3 1018.8 0.0
29/07:30pm 12.6 10.7 4.8 59 3.8 N 4 7 2 4 1019.2 1018.7 0.0
29/07:00pm 15.0 13.2 5.2 52 4.9 NW 4 6 2 3 1018.8 1018.2 0.0
29/06:30pm 16.5 14.3 6.3 51 5.2 NW 7 9 4 5 1018.5 1018.0 0.0
29/06:00pm 17.8 15.1 5.4 44 6.3 NW 9 11 5 6 1018.3 1017.8 0.0
29/05:30pm 18.4 15.1 6.3 45 6.3 NW 13 15 7 8 1018.1 1017.5 0.0
29/05:00pm 19.9 15.9 6.6 42 7.0 NW 17 22 9 12 1017.9 1017.3 0.0
29/04:30pm 20.7 15.4 5.1 36 8.0 NW 22 28 12 15 1017.7 1017.1 0.0
29/04:00pm 21.3 15.6 4.8 34 8.5 NW 24 32 13 17 1017.7 1017.1 0.0
29/03:30pm 21.4 14.8 4.0 32 8.8 NW 28 35 15 19 1017.7 1017.1 0.0
29/03:00pm 22.0 16.3 5.0 33 8.8 NW 24 33 13 18 1017.7 1017.1 0.0
29/02:30pm 22.0 16.4 5.4 34 8.7 WNW 24 32 13 17 1017.7 1017.1 0.0
29/02:00pm 21.6 15.5 4.7 33 8.7 WNW 26 35 14 19 1018.0 1017.4 0.0
29/01:30pm 21.6 14.3 4.7 33 8.7 NW 32 39 17 21 1018.0 1017.4 0.0
29/01:00pm 21.5 14.2 4.6 33 8.7 NW 32 48 17 26 1018.1 1017.5 0.0
29/12:30pm 21.0 13.5 4.6 34 8.4 NW 33 43 18 23 1018.2 1017.7 0.0
29/12:00pm 21.1 14.0 6.2 38 7.9 NW 33 44 18 24 1018.3 1017.8 0.0
29/11:30am 20.4 13.2 5.2 37 7.8 NW 32 43 17 23 1018.5 1018.0 0.0
29/11:00am 19.3 13.7 8.6 50 5.8 NW 28 41 15 22 1019.0 1018.4 0.0
29/10:30am 18.6 12.2 6.8 46 6.2 NW 30 39 16 21 1019.2 1018.7 0.0
29/10:00am 18.3 12.2 6.8 47 6.0 NW 28 37 15 20 1019.4 1018.9 0.0
29/09:30am 17.6 10.5 5.5 45 6.2 NW 32 39 17 21 1019.5 1019.0 0.0
29/09:00am 17.0 10.3 5.6 47 5.8 NW 30 39 16 21 1019.5 1019.0 0.0
29/08:30am 16.6 11.0 5.6 48 5.6 NW 24 30 13 16 1019.6 1019.1 0.0
29/08:00am 15.4 10.6 5.6 52 4.9 NW 20 26 11 14 1019.6 1019.1 0.0
29/07:30am 14.1 10.2 5.2 55 4.4 NW 15 19 8 10 1019.5 1019.0 0.0
29/07:00am 12.8 9.7 5.7 62 3.5 NNW 11 15 6 8 1019.3 1018.8 0.0
29/06:30am 10.6 7.3 4.5 66 2.9 NW 11 15 6 8 1019.1 1018.5 0.0
29/06:00am 8.7 4.4 3.3 69 2.5 NNW 15 17 8 9 1018.6 1018.1 0.0
29/05:30am 9.1 4.5 3.5 68 2.6 NNW 17 19 9 10 1018.4 1017.9 0.0
29/05:00am 8.8 4.1 3.4 69 2.5 NW 17 20 9 11 1018.2 1017.7 0.0
29/04:30am 9.0 4.3 3.2 67 2.6 N 17 20 9 11 1018.0 1017.4 0.0
29/04:00am 9.2 4.5 3.2 66 2.7 N 17 20 9 11 1018.0 1017.4 0.0
29/03:30am 10.5 5.0 3.8 63 3.1 NNW 22 26 12 14 1018.1 1017.5 0.0
29/03:00am 9.2 4.2 3.8 69 2.5 NW 19 20 10 11 1018.4 1017.9 0.0
29/02:30am 9.4 4.2 3.8 68 2.6 NW 20 24 11 13 1018.8 1018.2 0.0
29/02:00am 8.9 4.0 4.1 72 2.2 NW 19 20 10 11 1019.0 1018.4 0.0
29/01:30am 7.4 3.1 3.5 76 1.8 NNW 15 17 8 9 1019.3 1018.8 0.0
29/01:00am 9.3 6.2 3.7 68 2.6 NW 9 15 5 8 1019.5 1019.0 0.0
29/12:30am 9.3 5.9 3.9 69 2.5 N 11 13 6 7 1019.4 1018.9 0.0
29/12:00am 6.6 3.6 2.3 74 1.9 NE 7 9 4 5 1019.4 1018.9 0.0
 
Date/Time
EST
Temp
°C
App
Temp
°C
Dew
Point
Rel
Hum
%
Delta-T
°C
Wind Press
QNH
hPa
Press
MSL
hPa
Rain
since 9 am
mm
Dir
 
Spd
km/h
Gust
km/h
Spd
kts
Gust
kts
28/11:30pm 8.4 3.5 4.0 74 2.0 NNW 19 20 10 11 1019.5 1019.0 0.0
28/11:19pm 8.2 3.7 4.4 77 1.8 NNW 17 20 9 11 1019.6 1019.1 0.0
28/11:01pm 8.0 4.4 2.9 70 2.3 NNW 11 15 6 8 1019.7 1019.2 0.0
28/11:00pm 8.2 4.6 3.1 70 2.3 NNW 11 15 6 8 1019.7 1019.2 0.0
28/10:30pm 9.5 6.0 3.5 66 2.8 NNE 11 15 6 8 1020.2 1019.7 0.0
28/10:00pm 8.0 6.1 2.9 70 2.3 NNE 2 7 1 4 1020.4 1019.9 0.0
28/09:30pm 9.5 8.1 3.5 66 2.8 CALM 0 4 0 2 1020.5 1020.0 0.0
28/09:00pm 11.6 9.1 3.9 59 3.6 WNW 6 7 3 4 1020.5 1020.0 0.0
28/08:30pm 12.1 9.3 5.3 63 3.3 W 9 11 5 6 1020.4 1019.9 0.0
28/08:00pm 8.5 6.0 4.7 77 1.8 WNW 7 9 4 5 1020.2 1019.7 0.0
28/07:30pm 8.3 7.0 4.3 76 1.9 CALM 0 0 0 0 1019.6 1019.1 0.0
28/07:00pm 12.9 10.0 4.8 58 3.9 NNW 9 11 5 6 1019.2 1018.7 0.0
28/06:30pm 13.1 10.4 5.8 61 3.6 NNW 9 11 5 6 1019.0 1018.4 0.0
28/06:00pm 13.0 9.5 5.4 60 3.7 NW 13 15 7 8 1019.0 1018.4 0.0
28/05:30pm 15.1 11.7 5.9 54 4.6 NNW 13 19 7 10 1018.9 1018.3 0.0
28/05:00pm 16.4 12.3 6.2 51 5.2 NNW 17 24 9 13 1018.9 1018.3 0.0
28/04:30pm 16.8 12.7 6.3 50 5.4 NNW 17 28 9 15 1019.0 1018.4 0.0
28/04:00pm 17.1 12.2 4.1 42 6.4 NNW 19 24 10 13 1019.1 1018.5 0.0
28/03:30pm 17.1 11.9 2.7 38 6.9 NNW 19 24 10 13 1019.3 1018.8 0.0
28/03:00pm 17.1 13.3 5.7 47 5.8 NNW 15 26 8 14 1019.6 1019.1 0.0
28/02:30pm 17.3 13.0 6.8 50 5.5 NW 19 24 10 13 1020.1 1019.6 0.0
28/02:00pm 17.1 13.3 6.0 48 5.7 N 15 20 8 11 1020.3 1019.8 0.0
28/01:30pm 17.5 14.1 7.8 53 5.2 N 15 22 8 12 1020.5 1020.0 0.0
28/01:00pm 16.5 13.1 7.7 56 4.6 NW 15 19 8 10 1020.9 1020.4 0.0
28/12:30pm 17.9 15.1 8.7 55 5.0 N 13 19 7 10 1021.4 1020.9 0.0
28/12:00pm 17.0 14.9 6.5 50 5.4 NNW 7 15 4 8 1021.9 1021.5 0.0
28/11:30am 16.9 14.2 5.5 47 5.8 NNW 9 20 5 11 1022.2 1021.7 0.0
28/11:00am 16.6 14.9 6.1 50 5.4 NNW 4 11 2 6 1022.7 1022.2 0.0
28/10:30am 15.9 13.5 6.9 55 4.7 NNW 9 13 5 7 1022.8 1022.4 0.0

Other Formats:

Comma delimited format used in spreadsheet applications
http://www.bom.gov.au/fwo/IDN60801/IDN60801.95726.axf

JavaScript Object Notation format (JSON) in row-major order
http://www.bom.gov.au/fwo/IDN60801/IDN60801.95726.json